sensor_id;sensor_type;location;lat;lon;timestamp;P1;durP1;ratioP1;P2;durP2;ratioP2
29838;SDS011;18669;53.356;-1.464;2023-04-06T00:00:55;6.80;;;5.18;;
29838;SDS011;18669;53.356;-1.464;2023-04-06T00:03:40;6.72;;;5.22;;
29838;SDS011;18669;53.356;-1.464;2023-04-06T00:06:25;8.35;;;5.00;;
29838;SDS011;18669;53.356;-1.464;2023-04-06T00:09:11;5.70;;;4.93;;
29838;SDS011;18669;53.356;-1.464;2023-04-06T00:11:56;6.03;;;4.80;;
29838;SDS011;18669;53.356;-1.464;2023-04-06T00:14:42;7.72;;;5.80;;
29838;SDS011;18669;53.356;-1.464;2023-04-06T00:17:27;5.75;;;5.15;;
29838;SDS011;18669;53.356;-1.464;2023-04-06T00:20:12;5.85;;;4.82;;
29838;SDS011;18669;53.356;-1.464;2023-04-06T00:22:57;6.70;;;5.45;;
29838;SDS011;18669;53.356;-1.464;2023-04-06T00:25:42;6.65;;;4.90;;
29838;SDS011;18669;53.356;-1.464;2023-04-06T00:28:27;7.35;;;5.25;;
29838;SDS011;18669;53.356;-1.464;2023-04-06T00:31:13;6.47;;;5.40;;
29838;SDS011;18669;53.356;-1.464;2023-04-06T00:33:59;6.47;;;5.15;;
29838;SDS011;18669;53.356;-1.464;2023-04-06T00:36:43;5.80;;;4.72;;
29838;SDS011;18669;53.356;-1.464;2023-04-06T00:39:28;6.45;;;4.95;;
29838;SDS011;18669;53.356;-1.464;2023-04-06T00:42:13;6.50;;;4.65;;
29838;SDS011;18669;53.356;-1.464;2023-04-06T00:44:58;7.60;;;4.65;;
29838;SDS011;18669;53.356;-1.464;2023-04-06T00:47:44;5.18;;;4.03;;
29838;SDS011;18669;53.356;-1.464;2023-04-06T00:50:29;5.70;;;4.65;;
29838;SDS011;18669;53.356;-1.464;2023-04-06T00:53:14;6.93;;;4.78;;
29838;SDS011;18669;53.356;-1.464;2023-04-06T00:55:59;6.22;;;4.93;;
29838;SDS011;18669;53.356;-1.464;2023-04-06T00:58:44;8.65;;;5.35;;
29838;SDS011;18669;53.356;-1.464;2023-04-06T01:01:29;7.38;;;5.43;;
29838;SDS011;18669;53.356;-1.464;2023-04-06T01:04:14;7.10;;;5.55;;
29838;SDS011;18669;53.356;-1.464;2023-04-06T01:06:59;9.90;;;6.55;;
29838;SDS011;18669;53.356;-1.464;2023-04-06T01:09:44;7.97;;;5.65;;
29838;SDS011;18669;53.356;-1.464;2023-04-06T01:12:29;8.82;;;6.05;;
29838;SDS011;18669;53.356;-1.464;2023-04-06T01:15:14;8.98;;;6.10;;
29838;SDS011;18669;53.356;-1.464;2023-04-06T01:17:59;8.82;;;6.63;;
29838;SDS011;18669;53.356;-1.464;2023-04-06T01:20:44;8.15;;;6.20;;
29838;SDS011;18669;53.356;-1.464;2023-04-06T01:23:29;9.48;;;6.30;;
29838;SDS011;18669;53.356;-1.464;2023-04-06T01:26:14;10.70;;;6.03;;
29838;SDS011;18669;53.356;-1.464;2023-04-06T01:28:59;7.90;;;6.15;;
29838;SDS011;18669;53.356;-1.464;2023-04-06T01:31:45;7.75;;;6.03;;
29838;SDS011;18669;53.356;-1.464;2023-04-06T01:34:30;9.35;;;6.35;;
29838;SDS011;18669;53.356;-1.464;2023-04-06T01:37:15;8.68;;;6.38;;
29838;SDS011;18669;53.356;-1.464;2023-04-06T01:40:00;7.85;;;6.47;;
29838;SDS011;18669;53.356;-1.464;2023-04-06T01:42:45;8.77;;;6.10;;
29838;SDS011;18669;53.356;-1.464;2023-04-06T01:45:30;8.15;;;6.15;;
29838;SDS011;18669;53.356;-1.464;2023-04-06T01:48:15;10.38;;;6.55;;
29838;SDS011;18669;53.356;-1.464;2023-04-06T01:51:00;10.35;;;6.88;;
29838;SDS011;18669;53.356;-1.464;2023-04-06T01:53:45;10.95;;;7.40;;
29838;SDS011;18669;53.356;-1.464;2023-04-06T01:56:30;8.93;;;6.93;;
29838;SDS011;18669;53.356;-1.464;2023-04-06T01:59:15;10.30;;;6.65;;
29838;SDS011;18669;53.356;-1.464;2023-04-06T02:02:00;8.75;;;6.40;;
29838;SDS011;18669;53.356;-1.464;2023-04-06T02:04:45;8.63;;;6.90;;
29838;SDS011;18669;53.356;-1.464;2023-04-06T02:07:30;9.70;;;7.07;;
29838;SDS011;18669;53.356;-1.464;2023-04-06T02:10:15;8.60;;;6.38;;
29838;SDS011;18669;53.356;-1.464;2023-04-06T02:13:00;9.43;;;6.85;;
29838;SDS011;18669;53.356;-1.464;2023-04-06T02:15:45;9.63;;;6.43;;
29838;SDS011;18669;53.356;-1.464;2023-04-06T02:18:30;9.18;;;6.30;;
29838;SDS011;18669;53.356;-1.464;2023-04-06T02:21:16;7.53;;;5.85;;
29838;SDS011;18669;53.356;-1.464;2023-04-06T02:24:04;8.95;;;6.57;;
29838;SDS011;18669;53.356;-1.464;2023-04-06T02:26:49;8.35;;;5.70;;
29838;SDS011;18669;53.356;-1.464;2023-04-06T02:29:34;7.35;;;5.63;;
29838;SDS011;18669;53.356;-1.464;2023-04-06T02:32:19;8.50;;;6.05;;
29838;SDS011;18669;53.356;-1.464;2023-04-06T02:35:04;5.55;;;4.88;;
29838;SDS011;18669;53.356;-1.464;2023-04-06T02:37:49;7.35;;;5.63;;
29838;SDS011;18669;53.356;-1.464;2023-04-06T02:40:34;7.72;;;5.18;;
29838;SDS011;18669;53.356;-1.464;2023-04-06T02:43:19;5.22;;;4.45;;
29838;SDS011;18669;53.356;-1.464;2023-04-06T02:46:04;6.30;;;4.47;;
29838;SDS011;18669;53.356;-1.464;2023-04-06T02:48:50;5.95;;;4.57;;
29838;SDS011;18669;53.356;-1.464;2023-04-06T02:51:35;4.82;;;3.97;;
29838;SDS011;18669;53.356;-1.464;2023-04-06T02:54:19;5.70;;;3.28;;
29838;SDS011;18669;53.356;-1.464;2023-04-06T02:57:04;3.50;;;3.15;;
29838;SDS011;18669;53.356;-1.464;2023-04-06T02:59:50;3.03;;;2.72;;
29838;SDS011;18669;53.356;-1.464;2023-04-06T03:02:35;3.38;;;2.97;;
29838;SDS011;18669;53.356;-1.464;2023-04-06T03:05:19;4.97;;;3.10;;
29838;SDS011;18669;53.356;-1.464;2023-04-06T03:08:04;3.60;;;2.80;;
29838;SDS011;18669;53.356;-1.464;2023-04-06T03:10:49;3.20;;;2.58;;
29838;SDS011;18669;53.356;-1.464;2023-04-06T03:13:35;3.78;;;2.90;;
29838;SDS011;18669;53.356;-1.464;2023-04-06T03:16:22;4.18;;;2.75;;
29838;SDS011;18669;53.356;-1.464;2023-04-06T03:19:07;4.00;;;2.92;;
29838;SDS011;18669;53.356;-1.464;2023-04-06T03:21:52;2.83;;;2.30;;
29838;SDS011;18669;53.356;-1.464;2023-04-06T03:24:37;5.07;;;2.90;;
29838;SDS011;18669;53.356;-1.464;2023-04-06T03:27:22;3.70;;;3.10;;
29838;SDS011;18669;53.356;-1.464;2023-04-06T03:30:07;3.22;;;2.70;;
29838;SDS011;18669;53.356;-1.464;2023-04-06T03:32:52;3.97;;;2.90;;
29838;SDS011;18669;53.356;-1.464;2023-04-06T03:35:37;3.42;;;2.70;;
29838;SDS011;18669;53.356;-1.464;2023-04-06T03:38:22;3.40;;;2.50;;
29838;SDS011;18669;53.356;-1.464;2023-04-06T03:41:07;3.70;;;2.60;;
29838;SDS011;18669;53.356;-1.464;2023-04-06T03:43:52;2.95;;;2.40;;
29838;SDS011;18669;53.356;-1.464;2023-04-06T03:46:37;3.75;;;2.80;;
29838;SDS011;18669;53.356;-1.464;2023-04-06T03:49:22;2.75;;;2.35;;
29838;SDS011;18669;53.356;-1.464;2023-04-06T03:52:06;6.88;;;2.67;;
29838;SDS011;18669;53.356;-1.464;2023-04-06T03:54:51;4.25;;;2.35;;
29838;SDS011;18669;53.356;-1.464;2023-04-06T03:57:37;5.82;;;2.60;;
29838;SDS011;18669;53.356;-1.464;2023-04-06T04:00:22;2.90;;;2.53;;
29838;SDS011;18669;53.356;-1.464;2023-04-06T04:03:07;2.88;;;2.53;;
29838;SDS011;18669;53.356;-1.464;2023-04-06T04:05:53;3.95;;;2.90;;
29838;SDS011;18669;53.356;-1.464;2023-04-06T04:08:39;4.47;;;2.90;;
29838;SDS011;18669;53.356;-1.464;2023-04-06T04:11:24;3.08;;;2.78;;
29838;SDS011;18669;53.356;-1.464;2023-04-06T04:14:09;3.53;;;2.95;;
29838;SDS011;18669;53.356;-1.464;2023-04-06T04:16:54;4.55;;;3.05;;
29838;SDS011;18669;53.356;-1.464;2023-04-06T04:19:38;4.93;;;3.33;;
29838;SDS011;18669;53.356;-1.464;2023-04-06T04:22:36;4.65;;;3.30;;
29838;SDS011;18669;53.356;-1.464;2023-04-06T04:25:20;3.75;;;3.08;;
29838;SDS011;18669;53.356;-1.464;2023-04-06T04:28:05;4.75;;;3.42;;
29838;SDS011;18669;53.356;-1.464;2023-04-06T04:30:50;4.75;;;4.03;;
29838;SDS011;18669;53.356;-1.464;2023-04-06T04:33:35;4.57;;;3.70;;
29838;SDS011;18669;53.356;-1.464;2023-04-06T04:36:20;4.38;;;3.33;;
29838;SDS011;18669;53.356;-1.464;2023-04-06T04:39:05;6.20;;;3.65;;
29838;SDS011;18669;53.356;-1.464;2023-04-06T04:41:50;4.97;;;3.70;;
29838;SDS011;18669;53.356;-1.464;2023-04-06T04:44:35;5.50;;;4.10;;
29838;SDS011;18669;53.356;-1.464;2023-04-06T04:47:20;6.43;;;4.15;;
29838;SDS011;18669;53.356;-1.464;2023-04-06T04:50:05;5.25;;;3.80;;
29838;SDS011;18669;53.356;-1.464;2023-04-06T04:52:50;5.45;;;3.80;;
29838;SDS011;18669;53.356;-1.464;2023-04-06T04:55:35;5.40;;;4.32;;
29838;SDS011;18669;53.356;-1.464;2023-04-06T04:58:20;5.20;;;3.90;;
29838;SDS011;18669;53.356;-1.464;2023-04-06T05:01:05;9.38;;;4.72;;
29838;SDS011;18669;53.356;-1.464;2023-04-06T05:03:50;7.07;;;4.88;;
29838;SDS011;18669;53.356;-1.464;2023-04-06T05:06:34;6.63;;;4.68;;
29838;SDS011;18669;53.356;-1.464;2023-04-06T05:09:19;6.68;;;4.68;;
29838;SDS011;18669;53.356;-1.464;2023-04-06T05:12:04;6.30;;;4.75;;
29838;SDS011;18669;53.356;-1.464;2023-04-06T05:14:49;8.93;;;4.85;;
29838;SDS011;18669;53.356;-1.464;2023-04-06T05:17:34;7.57;;;4.13;;
29838;SDS011;18669;53.356;-1.464;2023-04-06T05:20:19;11.95;;;4.45;;
29838;SDS011;18669;53.356;-1.464;2023-04-06T05:23:04;6.50;;;4.00;;
29838;SDS011;18669;53.356;-1.464;2023-04-06T05:25:49;4.80;;;3.83;;
29838;SDS011;18669;53.356;-1.464;2023-04-06T05:28:35;6.70;;;4.32;;
29838;SDS011;18669;53.356;-1.464;2023-04-06T05:31:20;8.10;;;4.85;;
29838;SDS011;18669;53.356;-1.464;2023-04-06T05:34:05;6.75;;;4.55;;
29838;SDS011;18669;53.356;-1.464;2023-04-06T05:36:50;6.20;;;4.55;;
29838;SDS011;18669;53.356;-1.464;2023-04-06T05:39:35;6.43;;;4.93;;
29838;SDS011;18669;53.356;-1.464;2023-04-06T05:42:20;13.20;;;6.00;;
29838;SDS011;18669;53.356;-1.464;2023-04-06T05:45:05;12.82;;;5.60;;
29838;SDS011;18669;53.356;-1.464;2023-04-06T05:47:51;9.88;;;6.07;;
29838;SDS011;18669;53.356;-1.464;2023-04-06T05:50:36;11.75;;;7.20;;
29838;SDS011;18669;53.356;-1.464;2023-04-06T05:53:21;11.07;;;6.45;;
29838;SDS011;18669;53.356;-1.464;2023-04-06T05:56:06;9.45;;;5.53;;
29838;SDS011;18669;53.356;-1.464;2023-04-06T05:58:51;10.05;;;6.30;;
29838;SDS011;18669;53.356;-1.464;2023-04-06T06:01:36;11.57;;;6.68;;
29838;SDS011;18669;53.356;-1.464;2023-04-06T06:04:21;8.63;;;5.82;;
29838;SDS011;18669;53.356;-1.464;2023-04-06T06:07:06;10.68;;;6.22;;
29838;SDS011;18669;53.356;-1.464;2023-04-06T06:09:51;8.88;;;5.97;;
29838;SDS011;18669;53.356;-1.464;2023-04-06T06:12:36;10.50;;;5.95;;
29838;SDS011;18669;53.356;-1.464;2023-04-06T06:15:21;8.55;;;5.20;;
29838;SDS011;18669;53.356;-1.464;2023-04-06T06:18:06;6.15;;;4.82;;
29838;SDS011;18669;53.356;-1.464;2023-04-06T06:20:51;8.88;;;5.53;;
29838;SDS011;18669;53.356;-1.464;2023-04-06T06:23:36;7.25;;;5.18;;
29838;SDS011;18669;53.356;-1.464;2023-04-06T06:26:20;7.38;;;4.32;;
29838;SDS011;18669;53.356;-1.464;2023-04-06T06:29:06;6.40;;;4.20;;
29838;SDS011;18669;53.356;-1.464;2023-04-06T06:31:51;5.93;;;4.32;;
29838;SDS011;18669;53.356;-1.464;2023-04-06T06:34:36;8.50;;;4.10;;
29838;SDS011;18669;53.356;-1.464;2023-04-06T06:37:21;8.20;;;4.13;;
29838;SDS011;18669;53.356;-1.464;2023-04-06T06:40:06;9.13;;;4.43;;
29838;SDS011;18669;53.356;-1.464;2023-04-06T06:42:52;8.30;;;5.60;;
29838;SDS011;18669;53.356;-1.464;2023-04-06T06:45:37;12.98;;;4.28;;
29838;SDS011;18669;53.356;-1.464;2023-04-06T06:48:22;7.60;;;4.43;;
29838;SDS011;18669;53.356;-1.464;2023-04-06T06:51:06;4.93;;;3.50;;
29838;SDS011;18669;53.356;-1.464;2023-04-06T06:53:51;8.15;;;3.85;;
29838;SDS011;18669;53.356;-1.464;2023-04-06T06:56:39;13.07;;;6.05;;
29838;SDS011;18669;53.356;-1.464;2023-04-06T06:59:31;8.75;;;4.30;;
29838;SDS011;18669;53.356;-1.464;2023-04-06T07:02:16;6.22;;;3.47;;
29838;SDS011;18669;53.356;-1.464;2023-04-06T07:05:01;8.30;;;3.90;;
29838;SDS011;18669;53.356;-1.464;2023-04-06T07:07:47;9.98;;;3.95;;
29838;SDS011;18669;53.356;-1.464;2023-04-06T07:10:33;4.97;;;3.40;;
29838;SDS011;18669;53.356;-1.464;2023-04-06T07:13:18;6.03;;;2.92;;
29838;SDS011;18669;53.356;-1.464;2023-04-06T07:16:06;4.88;;;3.10;;
29838;SDS011;18669;53.356;-1.464;2023-04-06T07:18:52;2.90;;;2.22;;
29838;SDS011;18669;53.356;-1.464;2023-04-06T07:24:50;3.10;;;2.30;;
29838;SDS011;18669;53.356;-1.464;2023-04-06T07:27:34;3.78;;;2.40;;
29838;SDS011;18669;53.356;-1.464;2023-04-06T07:30:20;3.70;;;2.50;;
29838;SDS011;18669;53.356;-1.464;2023-04-06T07:33:06;6.67;;;2.50;;
29838;SDS011;18669;53.356;-1.464;2023-04-06T07:35:51;8.05;;;3.33;;
29838;SDS011;18669;53.356;-1.464;2023-04-06T07:38:36;6.10;;;3.00;;
29838;SDS011;18669;53.356;-1.464;2023-04-06T07:41:21;3.47;;;2.40;;
29838;SDS011;18669;53.356;-1.464;2023-04-06T07:44:06;4.18;;;2.28;;
29838;SDS011;18669;53.356;-1.464;2023-04-06T07:46:51;3.65;;;1.60;;
29838;SDS011;18669;53.356;-1.464;2023-04-06T07:49:36;7.57;;;2.90;;
29838;SDS011;18669;53.356;-1.464;2023-04-06T07:52:21;11.48;;;2.10;;
29838;SDS011;18669;53.356;-1.464;2023-04-06T07:55:06;8.40;;;1.77;;
29838;SDS011;18669;53.356;-1.464;2023-04-06T07:57:51;4.18;;;2.47;;
29838;SDS011;18669;53.356;-1.464;2023-04-06T08:00:36;12.38;;;4.45;;
29838;SDS011;18669;53.356;-1.464;2023-04-06T08:03:21;9.25;;;2.83;;
29838;SDS011;18669;53.356;-1.464;2023-04-06T08:06:09;3.85;;;1.88;;
29838;SDS011;18669;53.356;-1.464;2023-04-06T08:08:54;8.55;;;2.42;;
29838;SDS011;18669;53.356;-1.464;2023-04-06T08:11:39;9.93;;;2.35;;
29838;SDS011;18669;53.356;-1.464;2023-04-06T08:14:24;14.07;;;3.45;;
29838;SDS011;18669;53.356;-1.464;2023-04-06T08:17:09;8.35;;;2.55;;
29838;SDS011;18669;53.356;-1.464;2023-04-06T08:19:54;6.13;;;2.45;;
29838;SDS011;18669;53.356;-1.464;2023-04-06T08:22:40;8.40;;;3.28;;
29838;SDS011;18669;53.356;-1.464;2023-04-06T08:25:25;5.40;;;1.42;;
29838;SDS011;18669;53.356;-1.464;2023-04-06T08:28:10;4.32;;;1.60;;
29838;SDS011;18669;53.356;-1.464;2023-04-06T08:30:55;9.20;;;2.72;;
29838;SDS011;18669;53.356;-1.464;2023-04-06T08:33:40;7.18;;;2.22;;
29838;SDS011;18669;53.356;-1.464;2023-04-06T08:36:25;7.68;;;2.45;;
29838;SDS011;18669;53.356;-1.464;2023-04-06T08:39:10;6.45;;;2.42;;
29838;SDS011;18669;53.356;-1.464;2023-04-06T08:41:55;5.57;;;1.30;;
29838;SDS011;18669;53.356;-1.464;2023-04-06T08:44:44;8.65;;;2.03;;
29838;SDS011;18669;53.356;-1.464;2023-04-06T08:47:30;5.88;;;1.42;;
29838;SDS011;18669;53.356;-1.464;2023-04-06T08:50:15;5.70;;;1.67;;
29838;SDS011;18669;53.356;-1.464;2023-04-06T08:53:01;10.43;;;1.83;;
29838;SDS011;18669;53.356;-1.464;2023-04-06T08:55:46;5.75;;;1.85;;
29838;SDS011;18669;53.356;-1.464;2023-04-06T08:58:34;8.10;;;1.60;;
29838;SDS011;18669;53.356;-1.464;2023-04-06T09:01:21;10.50;;;1.20;;
29838;SDS011;18669;53.356;-1.464;2023-04-06T09:04:09;9.88;;;1.70;;
29838;SDS011;18669;53.356;-1.464;2023-04-06T09:06:55;10.70;;;2.10;;
29838;SDS011;18669;53.356;-1.464;2023-04-06T09:09:40;5.15;;;1.40;;
29838;SDS011;18669;53.356;-1.464;2023-04-06T09:12:31;8.00;;;1.67;;
29838;SDS011;18669;53.356;-1.464;2023-04-06T09:15:20;6.28;;;1.10;;
29838;SDS011;18669;53.356;-1.464;2023-04-06T09:18:06;6.80;;;1.75;;
29838;SDS011;18669;53.356;-1.464;2023-04-06T09:20:59;11.70;;;1.92;;
29838;SDS011;18669;53.356;-1.464;2023-04-06T09:23:45;8.38;;;1.85;;
29838;SDS011;18669;53.356;-1.464;2023-04-06T09:26:30;7.95;;;1.40;;
29838;SDS011;18669;53.356;-1.464;2023-04-06T09:29:24;7.00;;;2.45;;
29838;SDS011;18669;53.356;-1.464;2023-04-06T09:32:11;9.52;;;2.30;;
29838;SDS011;18669;53.356;-1.464;2023-04-06T09:35:06;6.22;;;1.55;;
29838;SDS011;18669;53.356;-1.464;2023-04-06T09:37:54;9.48;;;1.75;;
29838;SDS011;18669;53.356;-1.464;2023-04-06T09:40:50;7.30;;;1.70;;
29838;SDS011;18669;53.356;-1.464;2023-04-06T09:43:35;8.65;;;2.58;;
29838;SDS011;18669;53.356;-1.464;2023-04-06T09:46:20;5.97;;;1.33;;
29838;SDS011;18669;53.356;-1.464;2023-04-06T09:49:07;10.35;;;1.80;;
29838;SDS011;18669;53.356;-1.464;2023-04-06T09:51:54;5.75;;;1.30;;
29838;SDS011;18669;53.356;-1.464;2023-04-06T09:54:43;7.75;;;1.45;;
29838;SDS011;18669;53.356;-1.464;2023-04-06T10:00:51;6.45;;;1.23;;
29838;SDS011;18669;53.356;-1.464;2023-04-06T10:03:52;10.02;;;1.50;;
29838;SDS011;18669;53.356;-1.464;2023-04-06T10:06:46;10.50;;;1.50;;
29838;SDS011;18669;53.356;-1.464;2023-04-06T10:09:36;7.57;;;1.27;;
29838;SDS011;18669;53.356;-1.464;2023-04-06T10:12:22;5.73;;;1.27;;
29838;SDS011;18669;53.356;-1.464;2023-04-06T10:15:07;4.93;;;1.40;;
29838;SDS011;18669;53.356;-1.464;2023-04-06T10:17:53;7.78;;;1.40;;
29838;SDS011;18669;53.356;-1.464;2023-04-06T10:20:43;6.63;;;2.58;;
29838;SDS011;18669;53.356;-1.464;2023-04-06T10:23:47;7.40;;;1.50;;
29838;SDS011;18669;53.356;-1.464;2023-04-06T10:26:33;14.77;;;1.95;;
29838;SDS011;18669;53.356;-1.464;2023-04-06T10:29:18;10.63;;;2.85;;
29838;SDS011;18669;53.356;-1.464;2023-04-06T10:34:50;5.38;;;1.13;;
29838;SDS011;18669;53.356;-1.464;2023-04-06T10:37:49;8.10;;;1.77;;
29838;SDS011;18669;53.356;-1.464;2023-04-06T10:40:38;12.70;;;1.38;;
29838;SDS011;18669;53.356;-1.464;2023-04-06T10:46:09;6.32;;;1.02;;
29838;SDS011;18669;53.356;-1.464;2023-04-06T10:48:55;4.97;;;1.30;;
29838;SDS011;18669;53.356;-1.464;2023-04-06T10:51:41;9.83;;;1.63;;
29838;SDS011;18669;53.356;-1.464;2023-04-06T10:54:26;9.07;;;1.85;;
29838;SDS011;18669;53.356;-1.464;2023-04-06T10:57:12;6.88;;;1.50;;
29838;SDS011;18669;53.356;-1.464;2023-04-06T10:59:57;11.82;;;1.50;;
29838;SDS011;18669;53.356;-1.464;2023-04-06T11:02:41;8.65;;;1.40;;
29838;SDS011;18669;53.356;-1.464;2023-04-06T11:05:26;9.27;;;1.30;;
29838;SDS011;18669;53.356;-1.464;2023-04-06T11:08:27;6.53;;;1.40;;
29838;SDS011;18669;53.356;-1.464;2023-04-06T11:11:15;8.63;;;2.25;;
29838;SDS011;18669;53.356;-1.464;2023-04-06T11:14:03;8.40;;;1.65;;
29838;SDS011;18669;53.356;-1.464;2023-04-06T11:16:48;3.75;;;0.98;;
29838;SDS011;18669;53.356;-1.464;2023-04-06T11:19:34;6.38;;;1.30;;
29838;SDS011;18669;53.356;-1.464;2023-04-06T11:22:18;5.97;;;1.52;;
29838;SDS011;18669;53.356;-1.464;2023-04-06T11:25:07;7.53;;;1.58;;
29838;SDS011;18669;53.356;-1.464;2023-04-06T11:27:52;8.93;;;1.30;;
29838;SDS011;18669;53.356;-1.464;2023-04-06T11:30:38;5.97;;;1.20;;
29838;SDS011;18669;53.356;-1.464;2023-04-06T11:33:23;4.05;;;1.15;;
29838;SDS011;18669;53.356;-1.464;2023-04-06T11:36:07;7.25;;;1.30;;
29838;SDS011;18669;53.356;-1.464;2023-04-06T11:38:52;4.93;;;1.52;;
29838;SDS011;18669;53.356;-1.464;2023-04-06T11:41:37;4.38;;;0.82;;
29838;SDS011;18669;53.356;-1.464;2023-04-06T11:50:17;9.80;;;1.40;;
29838;SDS011;18669;53.356;-1.464;2023-04-06T11:53:02;4.35;;;1.40;;
29838;SDS011;18669;53.356;-1.464;2023-04-06T11:55:47;6.88;;;1.55;;
29838;SDS011;18669;53.356;-1.464;2023-04-06T11:58:32;7.57;;;1.42;;
29838;SDS011;18669;53.356;-1.464;2023-04-06T12:01:17;10.15;;;1.60;;
29838;SDS011;18669;53.356;-1.464;2023-04-06T12:04:02;4.03;;;1.10;;
29838;SDS011;18669;53.356;-1.464;2023-04-06T12:06:47;3.58;;;1.10;;
29838;SDS011;18669;53.356;-1.464;2023-04-06T12:09:32;3.55;;;0.90;;
29838;SDS011;18669;53.356;-1.464;2023-04-06T12:12:19;5.00;;;1.15;;
29838;SDS011;18669;53.356;-1.464;2023-04-06T12:15:03;5.70;;;1.20;;
29838;SDS011;18669;53.356;-1.464;2023-04-06T12:17:49;6.15;;;1.48;;
29838;SDS011;18669;53.356;-1.464;2023-04-06T12:20:34;6.10;;;1.42;;
29838;SDS011;18669;53.356;-1.464;2023-04-06T12:23:19;7.43;;;1.88;;
29838;SDS011;18669;53.356;-1.464;2023-04-06T12:26:04;9.63;;;1.75;;
29838;SDS011;18669;53.356;-1.464;2023-04-06T12:28:50;9.63;;;2.10;;
29838;SDS011;18669;53.356;-1.464;2023-04-06T12:31:36;7.93;;;1.35;;
29838;SDS011;18669;53.356;-1.464;2023-04-06T12:34:22;5.28;;;1.38;;
29838;SDS011;18669;53.356;-1.464;2023-04-06T12:37:07;4.60;;;1.13;;
29838;SDS011;18669;53.356;-1.464;2023-04-06T12:39:52;5.72;;;1.38;;
29838;SDS011;18669;53.356;-1.464;2023-04-06T12:42:38;9.18;;;1.50;;
29838;SDS011;18669;53.356;-1.464;2023-04-06T12:45:23;7.82;;;1.48;;
29838;SDS011;18669;53.356;-1.464;2023-04-06T12:48:10;6.85;;;1.52;;
29838;SDS011;18669;53.356;-1.464;2023-04-06T12:50:59;11.13;;;1.60;;
29838;SDS011;18669;53.356;-1.464;2023-04-06T12:53:45;4.32;;;1.20;;
29838;SDS011;18669;53.356;-1.464;2023-04-06T12:56:30;9.82;;;1.52;;
29838;SDS011;18669;53.356;-1.464;2023-04-06T12:59:15;8.35;;;1.80;;
29838;SDS011;18669;53.356;-1.464;2023-04-06T13:02:00;9.45;;;1.50;;
29838;SDS011;18669;53.356;-1.464;2023-04-06T13:04:45;8.52;;;1.63;;
29838;SDS011;18669;53.356;-1.464;2023-04-06T13:07:31;7.68;;;1.60;;
29838;SDS011;18669;53.356;-1.464;2023-04-06T13:10:16;2.85;;;1.00;;
29838;SDS011;18669;53.356;-1.464;2023-04-06T13:13:01;5.80;;;0.95;;
29838;SDS011;18669;53.356;-1.464;2023-04-06T13:15:46;5.93;;;1.38;;
29838;SDS011;18669;53.356;-1.464;2023-04-06T13:18:31;2.65;;;0.88;;
29838;SDS011;18669;53.356;-1.464;2023-04-06T13:21:16;6.03;;;1.23;;
29838;SDS011;18669;53.356;-1.464;2023-04-06T13:24:01;4.05;;;0.93;;
29838;SDS011;18669;53.356;-1.464;2023-04-06T13:26:46;3.25;;;1.10;;
29838;SDS011;18669;53.356;-1.464;2023-04-06T13:29:31;6.18;;;1.08;;
29838;SDS011;18669;53.356;-1.464;2023-04-06T13:32:18;3.42;;;1.13;;
29838;SDS011;18669;53.356;-1.464;2023-04-06T13:35:03;4.10;;;1.30;;
29838;SDS011;18669;53.356;-1.464;2023-04-06T13:37:49;14.57;;;5.78;;
29838;SDS011;18669;53.356;-1.464;2023-04-06T13:40:38;6.57;;;2.25;;
29838;SDS011;18669;53.356;-1.464;2023-04-06T13:43:24;3.58;;;1.20;;
29838;SDS011;18669;53.356;-1.464;2023-04-06T13:46:10;7.88;;;0.90;;
29838;SDS011;18669;53.356;-1.464;2023-04-06T13:48:55;6.50;;;1.15;;
29838;SDS011;18669;53.356;-1.464;2023-04-06T13:51:40;4.93;;;1.33;;
29838;SDS011;18669;53.356;-1.464;2023-04-06T13:54:26;4.63;;;1.00;;
29838;SDS011;18669;53.356;-1.464;2023-04-06T13:57:12;3.92;;;0.90;;
29838;SDS011;18669;53.356;-1.464;2023-04-06T13:59:57;4.07;;;1.00;;
29838;SDS011;18669;53.356;-1.464;2023-04-06T14:02:42;2.92;;;1.00;;
29838;SDS011;18669;53.356;-1.464;2023-04-06T14:05:30;9.20;;;1.20;;
29838;SDS011;18669;53.356;-1.464;2023-04-06T14:08:16;4.93;;;1.23;;
29838;SDS011;18669;53.356;-1.464;2023-04-06T14:11:01;5.65;;;1.10;;
29838;SDS011;18669;53.356;-1.464;2023-04-06T14:13:46;2.50;;;0.80;;
29838;SDS011;18669;53.356;-1.464;2023-04-06T14:16:30;4.68;;;1.23;;
29838;SDS011;18669;53.356;-1.464;2023-04-06T14:19:16;6.57;;;1.85;;
29838;SDS011;18669;53.356;-1.464;2023-04-06T14:22:05;5.85;;;1.75;;
29838;SDS011;18669;53.356;-1.464;2023-04-06T14:24:50;12.23;;;4.97;;
29838;SDS011;18669;53.356;-1.464;2023-04-06T14:27:35;7.93;;;1.63;;
29838;SDS011;18669;53.356;-1.464;2023-04-06T14:30:19;7.22;;;1.42;;
29838;SDS011;18669;53.356;-1.464;2023-04-06T14:33:04;6.68;;;1.20;;
29838;SDS011;18669;53.356;-1.464;2023-04-06T14:35:49;4.75;;;1.33;;
29838;SDS011;18669;53.356;-1.464;2023-04-06T14:38:34;4.45;;;0.93;;
29838;SDS011;18669;53.356;-1.464;2023-04-06T14:41:22;3.47;;;0.82;;
29838;SDS011;18669;53.356;-1.464;2023-04-06T14:44:09;6.55;;;1.08;;
29838;SDS011;18669;53.356;-1.464;2023-04-06T14:46:56;8.45;;;1.10;;
29838;SDS011;18669;53.356;-1.464;2023-04-06T14:49:41;4.90;;;1.00;;
29838;SDS011;18669;53.356;-1.464;2023-04-06T14:52:29;11.40;;;1.10;;
29838;SDS011;18669;53.356;-1.464;2023-04-06T14:55:13;6.30;;;1.08;;
29838;SDS011;18669;53.356;-1.464;2023-04-06T14:57:59;3.47;;;1.20;;
29838;SDS011;18669;53.356;-1.464;2023-04-06T15:00:44;5.65;;;1.15;;
29838;SDS011;18669;53.356;-1.464;2023-04-06T15:03:29;9.88;;;1.00;;
29838;SDS011;18669;53.356;-1.464;2023-04-06T15:06:15;3.45;;;0.85;;
29838;SDS011;18669;53.356;-1.464;2023-04-06T15:09:00;3.47;;;0.80;;
29838;SDS011;18669;53.356;-1.464;2023-04-06T15:11:46;8.23;;;1.02;;
29838;SDS011;18669;53.356;-1.464;2023-04-06T15:14:31;3.85;;;1.00;;
29838;SDS011;18669;53.356;-1.464;2023-04-06T15:17:16;3.83;;;0.93;;
29838;SDS011;18669;53.356;-1.464;2023-04-06T15:20:01;5.10;;;1.15;;
29838;SDS011;18669;53.356;-1.464;2023-04-06T15:22:46;7.65;;;1.58;;
29838;SDS011;18669;53.356;-1.464;2023-04-06T15:25:31;8.77;;;1.27;;
29838;SDS011;18669;53.356;-1.464;2023-04-06T15:28:16;2.45;;;0.70;;
29838;SDS011;18669;53.356;-1.464;2023-04-06T15:31:00;2.30;;;0.75;;
29838;SDS011;18669;53.356;-1.464;2023-04-06T15:33:50;3.33;;;0.77;;
29838;SDS011;18669;53.356;-1.464;2023-04-06T15:36:35;3.45;;;0.70;;
29838;SDS011;18669;53.356;-1.464;2023-04-06T15:39:20;2.42;;;0.90;;
29838;SDS011;18669;53.356;-1.464;2023-04-06T15:42:05;6.25;;;1.13;;
29838;SDS011;18669;53.356;-1.464;2023-04-06T15:44:50;3.45;;;0.98;;
29838;SDS011;18669;53.356;-1.464;2023-04-06T15:47:34;5.07;;;1.17;;
29838;SDS011;18669;53.356;-1.464;2023-04-06T15:50:19;6.28;;;0.82;;
29838;SDS011;18669;53.356;-1.464;2023-04-06T15:53:04;5.40;;;0.80;;
29838;SDS011;18669;53.356;-1.464;2023-04-06T15:55:50;0.90;;;0.55;;
29838;SDS011;18669;53.356;-1.464;2023-04-06T15:58:35;4.75;;;1.25;;
29838;SDS011;18669;53.356;-1.464;2023-04-06T16:01:20;6.88;;;4.13;;
29838;SDS011;18669;53.356;-1.464;2023-04-06T16:04:05;6.82;;;0.77;;
29838;SDS011;18669;53.356;-1.464;2023-04-06T16:06:50;2.50;;;0.73;;
29838;SDS011;18669;53.356;-1.464;2023-04-06T16:09:35;3.35;;;1.00;;
29838;SDS011;18669;53.356;-1.464;2023-04-06T16:12:21;1.80;;;0.70;;
29838;SDS011;18669;53.356;-1.464;2023-04-06T16:15:06;2.70;;;0.90;;
29838;SDS011;18669;53.356;-1.464;2023-04-06T16:17:51;13.77;;;1.00;;
29838;SDS011;18669;53.356;-1.464;2023-04-06T16:20:36;2.30;;;0.65;;
29838;SDS011;18669;53.356;-1.464;2023-04-06T16:23:21;3.13;;;0.88;;
29838;SDS011;18669;53.356;-1.464;2023-04-06T16:26:12;4.07;;;0.73;;
29838;SDS011;18669;53.356;-1.464;2023-04-06T16:28:58;7.47;;;0.88;;
29838;SDS011;18669;53.356;-1.464;2023-04-06T16:31:46;6.15;;;1.90;;
29838;SDS011;18669;53.356;-1.464;2023-04-06T16:34:31;9.02;;;0.90;;
29838;SDS011;18669;53.356;-1.464;2023-04-06T16:37:18;5.73;;;1.17;;
29838;SDS011;18669;53.356;-1.464;2023-04-06T16:40:03;5.38;;;0.90;;